Time;durP1;ratioP1;P1;durP2;ratioP2;P2;SDS_P1;SDS_P2;PMS_P1;PMS_P2;Temp;Humidity;BMP_temperature;BMP_pressure;BME280_temperature;BME280_humidity;BME280_pressure;Samples;Min_cycle;Max_cycle;Signal;HPM_P1;HPM_P2
2024/01/14 00:02:24;;;;;;;8.95;3.17;;;5.60;99.90;;;;;;4995377;28;20261;-71
2024/01/14 00:04:51;;;;;;;10.25;3.50;;;5.50;99.90;;;;;;4995375;28;20253;-68
2024/01/14 00:07:18;;;;;;;15.80;3.85;;;5.50;99.90;;;;;;5003697;28;20251;-68
2024/01/14 00:09:44;;;;;;;8.48;3.13;;;5.40;99.90;;;;;;4996471;28;20206;-69
2024/01/14 00:12:11;;;;;;;10.27;3.72;;;5.50;99.90;;;;;;4995277;28;20276;-68
2024/01/14 00:14:41;;;;;;;9.65;4.10;;;5.30;99.90;;;;;;4995371;28;20201;-72
2024/01/14 00:17:08;;;;;;;11.18;5.40;;;5.20;99.90;;;;;;4995406;28;20221;-70
2024/01/14 00:19:35;;;;;;;4.13;2.35;;;5.20;99.90;;;;;;5000352;28;20242;-71
2024/01/14 00:22:01;;;;;;;4.22;1.33;;;5.10;99.90;;;;;;4995380;28;20217;-72
2024/01/14 00:24:27;;;;;;;2.05;1.30;;;5.10;99.90;;;;;;4995781;28;20268;-69
2024/01/14 00:26:54;;;;;;;1.27;0.80;;;5.00;99.90;;;;;;4999620;28;20209;-69
2024/01/14 00:29:21;;;;;;;6.93;1.17;;;4.90;99.90;;;;;;4994104;28;20234;-67
2024/01/14 00:31:50;;;;;;;9.70;1.45;;;4.90;99.90;;;;;;5003980;28;20261;-70
2024/01/14 00:34:16;;;;;;;5.47;1.20;;;4.90;99.90;;;;;;5006722;28;20205;-72
2024/01/14 00:36:43;;;;;;;9.05;1.50;;;4.90;99.90;;;;;;4995670;28;20202;-71
2024/01/14 00:39:11;;;;;;;5.00;1.15;;;4.90;99.90;;;;;;5002618;28;20618;-71
2024/01/14 00:41:38;;;;;;;3.67;1.10;;;4.90;99.90;;;;;;4994539;28;20305;-70
2024/01/14 00:44:05;;;;;;;4.25;1.83;;;4.90;99.90;;;;;;4993727;28;20689;-69
2024/01/14 00:46:32;;;;;;;7.65;1.83;;;5.00;99.90;;;;;;4995312;28;20198;-70
2024/01/14 00:49:00;;;;;;;7.25;3.10;;;5.00;99.90;;;;;;4993632;28;20198;-70
2024/01/14 00:51:27;;;;;;;6.90;1.25;;;5.00;99.90;;;;;;4997953;28;20443;-73
2024/01/14 00:53:54;;;;;;;3.75;1.20;;;5.10;99.90;;;;;;4995154;28;20608;-69
2024/01/14 00:56:21;;;;;;;3.25;1.17;;;5.10;99.90;;;;;;5000721;28;20229;-69
2024/01/14 00:58:48;;;;;;;2.90;1.10;;;5.10;99.90;;;;;;4999501;28;20323;-68
2024/01/14 01:01:15;;;;;;;3.83;1.20;;;5.20;99.90;;;;;;4992028;28;20237;-74
2024/01/14 01:03:42;;;;;;;3.63;1.25;;;5.10;99.90;;;;;;5001490;28;20212;-69
2024/01/14 01:06:11;;;;;;;6.70;1.15;;;5.10;99.90;;;;;;4997925;28;20220;-67
2024/01/14 01:08:38;;;;;;;3.42;1.17;;;5.10;99.90;;;;;;4997601;28;20202;-70
2024/01/14 01:11:06;;;;;;;5.30;1.58;;;5.10;99.90;;;;;;4995348;28;20225;-69
2024/01/14 01:13:33;;;;;;;2.97;0.90;;;5.10;99.90;;;;;;4998587;28;20747;-69
2024/01/14 01:16:00;;;;;;;3.40;1.10;;;5.10;99.90;;;;;;4995617;28;20261;-68
2024/01/14 01:18:27;;;;;;;4.60;1.15;;;5.10;99.90;;;;;;4996696;28;20229;-69
2024/01/14 01:20:54;;;;;;;1.73;0.95;;;5.10;99.90;;;;;;4994804;28;20237;-72
2024/01/14 01:23:22;;;;;;;3.08;1.52;;;5.20;99.90;;;;;;4995280;28;20261;-70
2024/01/14 01:25:50;;;;;;;3.75;1.38;;;5.20;99.90;;;;;;5001210;28;20218;-72
2024/01/14 01:28:17;;;;;;;2.67;1.13;;;5.20;99.90;;;;;;5005150;28;20195;-70
2024/01/14 01:30:44;;;;;;;8.15;1.30;;;5.10;99.90;;;;;;4995697;28;20198;-68
2024/01/14 01:33:11;;;;;;;3.10;1.13;;;5.10;99.90;;;;;;4999084;28;20222;-69
2024/01/14 01:35:38;;;;;;;4.75;1.45;;;5.20;99.90;;;;;;4999273;28;20205;-74
2024/01/14 01:38:05;;;;;;;5.95;1.48;;;5.20;99.90;;;;;;4996759;28;20253;-68
2024/01/14 01:40:34;;;;;;;5.65;1.10;;;5.20;99.90;;;;;;4996490;28;20289;-69
2024/01/14 01:43:00;;;;;;;7.10;3.25;;;5.20;99.90;;;;;;4998617;28;20251;-69
2024/01/14 01:45:28;;;;;;;3.13;1.50;;;5.30;99.90;;;;;;4994155;28;20260;-70
2024/01/14 01:47:55;;;;;;;4.20;0.90;;;5.30;99.90;;;;;;4997630;28;20198;-72
2024/01/14 01:50:22;;;;;;;5.07;1.45;;;5.20;99.90;;;;;;5006408;28;20240;-72
2024/01/14 01:52:49;;;;;;;1.58;0.90;;;5.30;99.90;;;;;;5001427;28;20287;-70
2024/01/14 01:55:16;;;;;;;3.80;1.55;;;5.30;99.90;;;;;;5003849;28;20206;-69
2024/01/14 01:57:45;;;;;;;1.77;1.52;;;5.30;99.90;;;;;;5000786;28;20253;-69
2024/01/14 02:00:14;;;;;;;3.63;1.77;;;5.40;99.90;;;;;;5001279;28;20213;-67
2024/01/14 02:02:42;;;;;;;4.82;2.00;;;5.30;99.90;;;;;;4994519;28;20222;-73
2024/01/14 02:05:09;;;;;;;6.60;1.90;;;5.40;99.90;;;;;;4997708;28;20205;-70
2024/01/14 02:07:37;;;;;;;3.72;2.30;;;5.30;99.90;;;;;;5008670;28;20291;-71
2024/01/14 02:10:05;;;;;;;5.07;1.33;;;5.30;99.90;;;;;;4992243;28;20711;-71
2024/01/14 02:12:32;;;;;;;3.45;1.40;;;5.30;99.90;;;;;;5001613;28;20304;-69
2024/01/14 02:15:00;;;;;;;2.65;1.85;;;5.30;99.90;;;;;;4994183;28;20300;-71
2024/01/14 02:17:27;;;;;;;7.03;3.00;;;5.30;99.90;;;;;;5003276;28;20221;-70
2024/01/14 02:19:54;;;;;;;6.90;2.67;;;5.20;99.90;;;;;;4995838;28;20626;-72
2024/01/14 02:22:28;;;;;;;7.47;2.42;;;5.20;99.90;;;;;;4999702;28;20222;-71
2024/01/14 02:24:57;;;;;;;17.85;3.90;;;5.10;99.90;;;;;;4993852;28;20209;-68
2024/01/14 02:27:25;;;;;;;7.40;2.30;;;5.10;99.90;;;;;;4996570;28;20206;-70
2024/01/14 02:29:54;;;;;;;9.77;2.42;;;5.20;99.90;;;;;;5001892;28;20633;-69
2024/01/14 02:32:21;;;;;;;6.05;2.42;;;5.10;99.90;;;;;;4999498;28;20295;-70
2024/01/14 02:34:48;;;;;;;6.90;2.58;;;5.10;99.90;;;;;;5007920;28;20672;-71
2024/01/14 02:37:15;;;;;;;4.10;2.47;;;5.20;99.90;;;;;;5006942;28;20217;-72
2024/01/14 02:39:42;;;;;;;9.88;2.97;;;5.20;99.90;;;;;;5003302;28;20202;-71
2024/01/14 02:42:11;;;;;;;8.48;3.08;;;5.20;99.90;;;;;;5009219;28;20635;-69
2024/01/14 02:44:36;;;;;;;11.73;2.65;;;5.20;99.90;;;;;;5003654;28;20233;-71
2024/01/14 02:47:03;;;;;;;16.60;1.70;;;5.10;99.90;;;;;;5012657;28;20703;-71
2024/01/14 02:49:30;;;;;;;8.88;2.92;;;5.10;99.90;;;;;;5011763;28;20468;-68
2024/01/14 02:51:57;;;;;;;6.78;2.17;;;5.20;99.90;;;;;;5011104;28;20240;-69
2024/01/14 02:54:24;;;;;;;8.73;3.25;;;5.20;99.90;;;;;;5006995;28;20206;-68
2024/01/14 02:56:51;;;;;;;12.70;2.50;;;5.20;99.90;;;;;;5004750;28;20234;-71
2024/01/14 03:01:47;;;;;;;11.75;3.80;;;5.20;99.90;;;;;;5007337;28;20236;-68
2024/01/14 03:04:14;;;;;;;7.45;2.00;;;5.20;99.90;;;;;;5006940;28;20260;-69
2024/01/14 03:06:41;;;;;;;7.18;2.40;;;5.10;99.90;;;;;;5004993;28;20263;-70
2024/01/14 03:09:09;;;;;;;7.43;2.65;;;5.10;99.90;;;;;;5007044;28;20222;-71
2024/01/14 03:11:36;;;;;;;13.10;3.50;;;5.00;99.90;;;;;;5002075;28;20253;-67
2024/01/14 03:14:03;;;;;;;11.25;1.88;;;5.00;99.90;;;;;;5010357;28;20224;-71
2024/01/14 03:16:30;;;;;;;5.43;2.05;;;5.00;99.90;;;;;;5000013;28;20197;-71
2024/01/14 03:18:58;;;;;;;4.13;2.42;;;5.00;99.90;;;;;;5012406;28;20251;-68
2024/01/14 03:21:25;;;;;;;3.10;1.25;;;5.00;99.90;;;;;;5003546;28;20234;-70
2024/01/14 03:23:52;;;;;;;10.32;2.78;;;4.90;99.90;;;;;;5001852;28;20237;-69
2024/01/14 03:26:19;;;;;;;6.50;2.88;;;4.80;99.90;;;;;;4999765;28;20245;-70
2024/01/14 03:28:46;;;;;;;9.80;2.33;;;4.80;99.90;;;;;;5005141;28;20233;-72
2024/01/14 03:31:15;;;;;;;4.80;2.05;;;4.70;99.90;;;;;;4996569;28;20249;-71
2024/01/14 03:33:42;;;;;;;7.18;2.05;;;4.70;99.90;;;;;;4998186;28;20284;-72
2024/01/14 03:36:13;;;;;;;7.70;1.70;;;4.60;99.90;;;;;;5006735;28;20237;-69
2024/01/14 03:38:40;;;;;;;7.57;1.80;;;4.60;99.90;;;;;;5002873;28;20221;-72
2024/01/14 03:41:07;;;;;;;8.57;2.10;;;4.60;99.90;;;;;;5000099;28;20567;-69
2024/01/14 03:43:34;;;;;;;13.23;3.25;;;4.60;99.90;;;;;;5002073;28;20222;-69
2024/01/14 03:46:00;;;;;;;11.93;2.72;;;4.70;99.90;;;;;;5005090;28;20281;-71
2024/01/14 03:48:27;;;;;;;17.08;2.72;;;4.80;99.90;;;;;;5005562;28;20198;-71
2024/01/14 03:50:54;;;;;;;11.30;3.40;;;4.80;99.90;;;;;;5008300;28;20245;-70
2024/01/14 03:53:23;;;;;;;12.60;3.22;;;4.80;99.90;;;;;;5008902;28;20233;-72
2024/01/14 03:55:50;;;;;;;8.02;3.05;;;4.80;99.90;;;;;;5011490;28;20613;-73
2024/01/14 03:58:17;;;;;;;8.32;2.88;;;4.90;99.90;;;;;;5012113;28;20213;-72
2024/01/14 04:00:44;;;;;;;8.85;2.20;;;4.70;99.90;;;;;;5012770;28;20288;-71
2024/01/14 04:03:11;;;;;;;6.47;3.08;;;4.80;99.90;;;;;;5004820;28;20357;-71
2024/01/14 04:05:38;;;;;;;8.45;2.80;;;4.80;99.90;;;;;;5003691;28;20213;-69
2024/01/14 04:08:05;;;;;;;12.23;3.53;;;4.80;99.90;;;;;;5004741;28;20205;-68
2024/01/14 04:10:33;;;;;;;8.90;2.08;;;4.80;99.90;;;;;;5007969;28;20678;-68
2024/01/14 04:13:00;;;;;;;20.38;3.00;;;4.80;99.90;;;;;;5011505;28;20279;-70
2024/01/14 04:15:27;;;;;;;10.50;3.67;;;4.90;99.90;;;;;;5006796;28;20763;-69
2024/01/14 04:17:54;;;;;;;11.02;2.45;;;4.80;99.90;;;;;;5001524;28;20214;-70
2024/01/14 04:20:21;;;;;;;9.50;2.90;;;4.80;99.90;;;;;;5006910;28;20264;-69
2024/01/14 04:22:48;;;;;;;13.45;2.28;;;4.90;99.90;;;;;;5009909;28;20221;-71
2024/01/14 04:25:15;;;;;;;14.15;2.97;;;4.90;99.90;;;;;;5009215;28;20208;-70
2024/01/14 04:27:43;;;;;;;15.80;2.50;;;4.80;99.90;;;;;;4994888;28;20238;-70
2024/01/14 04:30:11;;;;;;;12.02;3.60;;;4.90;99.90;;;;;;5008777;28;20236;-72
2024/01/14 04:32:38;;;;;;;6.07;2.17;;;4.90;99.90;;;;;;5011671;28;20280;-68
2024/01/14 04:35:05;;;;;;;13.75;2.50;;;4.90;99.90;;;;;;5003501;28;20661;-71
2024/01/14 04:37:32;;;;;;;11.55;3.30;;;4.90;99.90;;;;;;5006797;28;20272;-67
2024/01/14 04:39:59;;;;;;;8.60;2.08;;;4.90;99.90;;;;;;5006469;28;20265;-67
2024/01/14 04:42:26;;;;;;;7.13;3.50;;;4.80;99.90;;;;;;5002521;28;20275;-71
2024/01/14 04:44:55;;;;;;;10.75;2.20;;;4.90;99.90;;;;;;5009992;28;20310;-68
2024/01/14 04:47:22;;;;;;;4.45;2.15;;;4.80;99.90;;;;;;5010075;28;20205;-69
2024/01/14 04:49:49;;;;;;;9.60;2.95;;;4.80;99.90;;;;;;5012518;28;20268;-70
2024/01/14 04:52:16;;;;;;;18.52;3.10;;;4.80;99.90;;;;;;5007254;28;20220;-72
2024/01/14 04:54:43;;;;;;;7.15;2.25;;;4.80;99.90;;;;;;5012858;28;20300;-70
2024/01/14 04:57:09;;;;;;;16.67;3.55;;;4.80;99.90;;;;;;5005455;28;20245;-73
2024/01/14 04:59:36;;;;;;;11.68;3.35;;;4.80;99.90;;;;;;5011596;28;20311;-67
2024/01/14 05:02:05;;;;;;;9.52;1.65;;;4.80;99.90;;;;;;5002676;28;20257;-71
2024/01/14 05:04:32;;;;;;;15.57;4.53;;;4.80;99.90;;;;;;5012716;28;20632;-69
2024/01/14 05:06:59;;;;;;;8.40;2.85;;;4.80;99.90;;;;;;5002198;28;20232;-72
2024/01/14 05:09:26;;;;;;;6.63;1.95;;;4.80;99.90;;;;;;4999966;28;20239;-70
2024/01/14 05:11:53;;;;;;;5.50;2.33;;;4.70;99.90;;;;;;5003404;28;20302;-70
2024/01/14 05:14:20;;;;;;;8.45;2.38;;;4.60;99.90;;;;;;5009145;28;20201;-71
2024/01/14 05:16:47;;;;;;;10.05;2.28;;;4.70;99.90;;;;;;5001184;28;20244;-71
2024/01/14 05:19:15;;;;;;;12.48;3.00;;;4.50;99.90;;;;;;5004707;28;20225;-68
2024/01/14 05:21:42;;;;;;;8.50;2.15;;;4.50;99.90;;;;;;5010096;28;20582;-69
2024/01/14 05:24:09;;;;;;;8.68;2.80;;;4.40;99.90;;;;;;5002919;28;20254;-72
2024/01/14 05:26:40;;;;;;;8.40;2.40;;;4.40;99.90;;;;;;5004787;28;20264;-72
2024/01/14 05:29:07;;;;;;;5.78;2.30;;;4.40;99.90;;;;;;5011756;28;20280;-70
2024/01/14 05:31:36;;;;;;;10.63;2.40;;;4.30;99.90;;;;;;5005946;28;20232;-68
2024/01/14 05:34:03;;;;;;;18.65;3.22;;;4.30;99.90;;;;;;5012032;28;20229;-70
2024/01/14 05:36:31;;;;;;;6.63;2.42;;;4.30;99.90;;;;;;5011448;28;20202;-69
2024/01/14 05:38:58;;;;;;;12.57;3.08;;;4.20;99.90;;;;;;5006085;28;20218;-71
2024/01/14 05:41:25;;;;;;;14.68;2.78;;;4.20;99.90;;;;;;5006312;28;20309;-71
2024/01/14 05:43:52;;;;;;;12.13;4.10;;;4.30;99.90;;;;;;5005705;28;20240;-71
2024/01/14 05:46:19;;;;;;;12.98;2.95;;;4.30;99.90;;;;;;5008116;28;20634;-71
2024/01/14 05:48:46;;;;;;;11.10;3.17;;;4.20;99.90;;;;;;5009694;28;20226;-69
2024/01/14 05:51:13;;;;;;;12.13;2.67;;;4.20;99.90;;;;;;5007677;28;20201;-70
2024/01/14 05:53:41;;;;;;;17.45;4.43;;;4.20;99.90;;;;;;5011950;28;20287;-70
2024/01/14 05:56:08;;;;;;;9.68;2.80;;;4.20;99.90;;;;;;5004580;28;20240;-70
2024/01/14 05:58:35;;;;;;;10.90;2.97;;;4.20;99.90;;;;;;5007636;28;20691;-71
2024/01/14 06:01:02;;;;;;;12.18;2.88;;;4.20;99.90;;;;;;5003056;28;20683;-70
2024/01/14 06:03:29;;;;;;;4.82;1.95;;;4.20;99.90;;;;;;5013788;28;20256;-69
2024/01/14 06:05:55;;;;;;;13.27;3.45;;;4.10;99.90;;;;;;5011610;28;20241;-70
2024/01/14 06:08:22;;;;;;;12.27;3.13;;;4.10;99.90;;;;;;5010961;28;20261;-69
2024/01/14 06:10:51;;;;;;;8.93;2.55;;;4.10;99.90;;;;;;5002668;28;20261;-70
2024/01/14 06:13:18;;;;;;;11.43;3.05;;;4.10;99.90;;;;;;5004904;28;20600;-70
2024/01/14 06:15:45;;;;;;;24.75;2.83;;;4.10;99.90;;;;;;5004305;28;20610;-70
2024/01/14 06:18:12;;;;;;;10.68;2.85;;;4.00;99.90;;;;;;5007169;28;20198;-70
2024/01/14 06:20:39;;;;;;;16.65;3.25;;;4.00;99.90;;;;;;5011290;28;20210;-70
2024/01/14 06:23:24;;;;;;;13.32;4.05;;;3.90;99.90;;;;;;5015521;28;20694;-72
2024/01/14 06:25:52;;;;;;;12.15;3.45;;;3.90;99.90;;;;;;5013732;28;20201;-68
2024/01/14 06:28:19;;;;;;;9.35;3.25;;;3.80;99.90;;;;;;5004676;28;20347;-70
2024/01/14 06:30:54;;;;;;;16.17;3.72;;;3.80;99.90;;;;;;5013975;28;20240;-70
2024/01/14 06:33:21;;;;;;;12.23;2.60;;;3.70;99.90;;;;;;5009560;28;20616;-70
2024/01/14 06:35:48;;;;;;;16.35;2.78;;;3.80;99.90;;;;;;5016605;28;20228;-70
2024/01/14 06:38:22;;;;;;;18.90;4.15;;;3.70;99.90;;;;;;5016605;28;20332;-68
2024/01/14 06:40:49;;;;;;;16.35;2.30;;;3.70;99.90;;;;;;5007883;28;20267;-72
2024/01/14 06:43:17;;;;;;;23.30;5.57;;;3.60;99.90;;;;;;5016146;28;20260;-72
2024/01/14 06:45:45;;;;;;;19.23;4.22;;;3.60;99.90;;;;;;5016171;28;20205;-70
2024/01/14 06:48:12;;;;;;;13.25;2.47;;;3.60;99.90;;;;;;5016269;28;20289;-70
2024/01/14 06:50:39;;;;;;;13.25;4.47;;;3.60;99.90;;;;;;5016238;28;20237;-69
2024/01/14 06:53:06;;;;;;;11.52;3.22;;;3.50;99.90;;;;;;5014743;28;20721;-70
2024/01/14 06:55:33;;;;;;;12.85;3.30;;;3.50;99.90;;;;;;5007202;28;20201;-70
2024/01/14 06:57:59;;;;;;;11.85;2.33;;;3.40;99.90;;;;;;5014454;28;20625;-69
2024/01/14 07:00:28;;;;;;;14.27;3.38;;;3.40;99.90;;;;;;5006069;28;20253;-68
2024/01/14 07:02:55;;;;;;;9.93;3.55;;;3.40;99.90;;;;;;5010121;28;20230;-70
2024/01/14 07:05:22;;;;;;;12.50;2.88;;;3.40;99.90;;;;;;5010718;28;20244;-70
2024/01/14 07:07:49;;;;;;;11.98;2.50;;;3.40;99.90;;;;;;5011215;28;20275;-71
2024/01/14 07:10:16;;;;;;;6.70;1.67;;;3.50;99.90;;;;;;5005886;28;20242;-72
2024/01/14 07:12:42;;;;;;;9.85;2.20;;;3.50;99.90;;;;;;5002981;28;20327;-69
2024/01/14 07:15:10;;;;;;;11.98;2.40;;;3.60;99.90;;;;;;5003732;28;20237;-73
2024/01/14 07:17:39;;;;;;;19.70;2.75;;;3.50;99.90;;;;;;4998942;28;20569;-67
2024/01/14 07:20:07;;;;;;;12.15;2.60;;;3.50;99.90;;;;;;5011745;28;20257;-72
2024/01/14 07:22:34;;;;;;;9.15;3.20;;;3.50;99.90;;;;;;5010247;28;20221;-70
2024/01/14 07:25:01;;;;;;;15.02;4.20;;;3.50;99.90;;;;;;5002081;28;20736;-71
2024/01/14 07:27:28;;;;;;;11.82;2.90;;;3.50;99.90;;;;;;5014671;28;20632;-70
2024/01/14 07:29:55;;;;;;;13.75;3.50;;;3.60;99.90;;;;;;5006092;28;20202;-69
2024/01/14 07:32:22;;;;;;;15.07;3.78;;;3.50;99.90;;;;;;5013986;28;20253;-69
2024/01/14 07:34:51;;;;;;;24.45;3.60;;;3.40;99.90;;;;;;5000318;28;20249;-72
2024/01/14 07:37:18;;;;;;;15.05;3.13;;;3.50;99.90;;;;;;5011923;28;20212;-69
2024/01/14 07:39:46;;;;;;;11.60;3.30;;;3.50;99.90;;;;;;5014387;28;20248;-71
2024/01/14 07:42:13;;;;;;;17.55;4.05;;;3.40;99.90;;;;;;5007880;28;20243;-71
2024/01/14 07:44:40;;;;;;;10.38;2.80;;;3.40;99.90;;;;;;5014979;28;20210;-68
2024/01/14 07:47:08;;;;;;;14.93;4.15;;;3.40;99.90;;;;;;5011055;28;20201;-71
2024/01/14 07:49:35;;;;;;;27.23;5.18;;;3.50;99.90;;;;;;5006967;28;20283;-72
2024/01/14 07:52:05;;;;;;;10.30;3.08;;;3.50;99.90;;;;;;5011233;28;20233;-72
2024/01/14 07:54:32;;;;;;;19.40;3.80;;;3.60;99.90;;;;;;5006904;28;20210;-71
2024/01/14 07:56:59;;;;;;;12.35;3.60;;;3.60;99.90;;;;;;5012588;28;20214;-71
2024/01/14 07:59:26;;;;;;;9.35;2.67;;;3.60;99.90;;;;;;5013027;28;20241;-70
2024/01/14 08:01:53;;;;;;;17.02;4.70;;;3.70;99.90;;;;;;5010554;28;20261;-72
2024/01/14 08:04:20;;;;;;;17.00;3.28;;;3.80;99.90;;;;;;5009842;28;20657;-70
2024/01/14 08:06:47;;;;;;;8.30;2.70;;;3.90;99.90;;;;;;5013515;28;20201;-69
2024/01/14 08:09:15;;;;;;;10.18;3.17;;;4.00;99.90;;;;;;5006450;28;20295;-70
2024/01/14 08:11:42;;;;;;;16.83;4.20;;;4.10;99.90;;;;;;5000021;28;20287;-69
2024/01/14 08:14:09;;;;;;;8.15;3.40;;;4.10;99.90;;;;;;5008274;28;20205;-70
2024/01/14 08:16:36;;;;;;;10.20;3.60;;;4.20;99.90;;;;;;5004179;28;20228;-73
2024/01/14 08:19:04;;;;;;;11.38;1.92;;;4.20;99.90;;;;;;5008044;28;20236;-72
2024/01/14 08:21:31;;;;;;;16.48;3.17;;;4.20;99.90;;;;;;5012405;28;20201;-72
2024/01/14 08:23:58;;;;;;;23.20;3.70;;;4.10;99.90;;;;;;5002491;28;20245;-71
2024/01/14 08:26:26;;;;;;;21.88;3.10;;;4.10;99.90;;;;;;5003190;28;20205;-70
2024/01/14 08:28:53;;;;;;;11.25;2.10;;;4.10;99.90;;;;;;4998675;28;20202;-74
2024/01/14 08:31:20;;;;;;;9.32;2.50;;;4.20;99.90;;;;;;5011321;28;20228;-70
2024/01/14 08:33:47;;;;;;;12.35;3.00;;;4.10;99.90;;;;;;5007687;28;20241;-70
2024/01/14 08:36:14;;;;;;;11.57;3.38;;;4.30;99.90;;;;;;5010364;28;20205;-70
2024/01/14 08:38:41;;;;;;;10.00;2.60;;;4.70;99.90;;;;;;5012916;28;20256;-70
2024/01/14 08:41:09;;;;;;;6.53;1.60;;;4.70;99.90;;;;;;5011824;28;20225;-70
2024/01/14 08:43:37;;;;;;;6.47;2.13;;;5.20;99.90;;;;;;5008817;28;20231;-70
2024/01/14 08:46:05;;;;;;;10.45;3.20;;;5.90;99.90;;;;;;5000302;28;20722;-72
2024/01/14 08:48:32;;;;;;;9.88;3.20;;;6.10;99.90;;;;;;5010596;28;20271;-68
2024/01/14 08:51:01;;;;;;;13.25;3.40;;;5.70;99.90;;;;;;5001390;28;20292;-71
2024/01/14 08:53:28;;;;;;;8.68;2.35;;;5.60;99.90;;;;;;5004571;28;20256;-73
2024/01/14 08:55:55;;;;;;;10.98;3.33;;;5.60;99.90;;;;;;5008296;28;20355;-69
2024/01/14 08:58:22;;;;;;;8.48;2.60;;;5.60;99.90;;;;;;5003470;28;20676;-70
2024/01/14 09:00:50;;;;;;;5.43;2.50;;;5.90;99.90;;;;;;5009475;28;20220;-71
2024/01/14 09:03:17;;;;;;;8.45;2.35;;;6.50;99.90;;;;;;5006798;28;20267;-71
2024/01/14 09:05:45;;;;;;;5.30;2.95;;;6.80;99.90;;;;;;5010029;28;20265;-70
2024/01/14 09:08:13;;;;;;;8.52;2.80;;;7.10;99.90;;;;;;5008477;28;20212;-71
2024/01/14 09:10:40;;;;;;;8.75;3.17;;;7.30;99.90;;;;;;5007965;28;20202;-70
2024/01/14 09:13:07;;;;;;;9.55;2.70;;;6.90;99.90;;;;;;5011401;28;20236;-72
2024/01/14 09:15:35;;;;;;;14.85;2.92;;;6.70;99.90;;;;;;5008440;28;20612;-73
2024/01/14 09:18:04;;;;;;;15.85;4.93;;;6.40;99.90;;;;;;5010169;28;20271;-74
2024/01/14 09:20:31;;;;;;;6.30;2.53;;;6.10;99.90;;;;;;5008160;28;20652;-70
2024/01/14 09:22:57;;;;;;;13.30;2.97;;;6.40;99.90;;;;;;5000558;28;20229;-68
2024/01/14 09:25:24;;;;;;;13.80;2.28;;;6.80;99.90;;;;;;5008431;28;20288;-72
2024/01/14 09:27:52;;;;;;;11.02;3.45;;;7.30;99.90;;;;;;5012558;28;20264;-72
2024/01/14 09:30:19;;;;;;;8.35;3.45;;;7.40;99.90;;;;;;5006507;28;20285;-71
2024/01/14 09:32:46;;;;;;;13.25;2.70;;;7.50;99.90;;;;;;5001521;28;20249;-71
2024/01/14 09:35:15;;;;;;;11.50;2.70;;;7.80;99.90;;;;;;4997493;28;20206;-71
2024/01/14 09:37:42;;;;;;;12.30;3.72;;;7.40;99.90;;;;;;5008786;28;20277;-71
2024/01/14 09:40:09;;;;;;;10.82;2.85;;;7.30;99.90;;;;;;4999259;28;20222;-72
2024/01/14 09:42:40;;;;;;;6.22;2.72;;;6.90;99.90;;;;;;5009189;28;20275;-74
2024/01/14 09:45:08;;;;;;;16.70;3.65;;;6.40;99.90;;;;;;5009554;28;20201;-72
2024/01/14 09:47:37;;;;;;;12.18;3.22;;;6.20;99.90;;;;;;5007072;28;20563;-74
2024/01/14 09:50:07;;;;;;;14.80;2.72;;;6.10;99.90;;;;;;5008516;28;20205;-71
2024/01/14 09:52:36;;;;;;;11.77;3.60;;;5.90;99.90;;;;;;5010858;28;20225;-72
2024/01/14 09:55:04;;;;;;;16.40;3.10;;;5.70;99.90;;;;;;5009440;28;20660;-71
2024/01/14 09:57:33;;;;;;;26.75;3.95;;;5.70;99.90;;;;;;5005929;28;20618;-68
2024/01/14 10:00:04;;;;;;;12.85;3.33;;;5.50;99.90;;;;;;5000861;28;20731;-76
2024/01/14 10:02:33;;;;;;;9.40;4.07;;;5.40;99.90;;;;;;5000845;28;20253;-73
2024/01/14 10:05:00;;;;;;;15.45;3.17;;;5.40;99.90;;;;;;5004215;28;20249;-73
2024/01/14 10:07:28;;;;;;;17.60;3.22;;;5.50;99.90;;;;;;5008278;28;20676;-69
2024/01/14 10:09:57;;;;;;;16.65;3.88;;;5.60;99.90;;;;;;5003399;28;20663;-70
2024/01/14 10:12:26;;;;;;;13.30;3.05;;;5.50;99.90;;;;;;4998224;28;20222;-71
2024/01/14 10:14:58;;;;;;;11.63;2.55;;;5.50;99.90;;;;;;5004243;28;20259;-71
2024/01/14 10:17:25;;;;;;;7.72;2.00;;;5.50;99.90;;;;;;5012147;28;20284;-71
2024/01/14 10:19:53;;;;;;;15.13;3.85;;;5.50;99.90;;;;;;4997644;28;20296;-71
2024/01/14 10:22:21;;;;;;;18.83;4.20;;;5.50;99.90;;;;;;5003413;28;20696;-73
2024/01/14 10:24:52;;;;;;;9.55;2.28;;;5.70;99.90;;;;;;5002135;28;20557;-70
2024/01/14 10:27:21;;;;;;;13.07;2.80;;;6.10;99.90;;;;;;5010657;28;20209;-72
2024/01/14 10:29:49;;;;;;;7.88;2.15;;;6.30;99.90;;;;;;5011545;28;20198;-71
2024/01/14 10:32:16;;;;;;;12.13;3.28;;;6.30;99.90;;;;;;5010443;28;20236;-72
2024/01/14 10:34:44;;;;;;;8.27;2.55;;;6.00;99.90;;;;;;5001375;28;20202;-71
2024/01/14 10:37:11;;;;;;;8.35;2.45;;;6.00;99.90;;;;;;5002919;28;20285;-70
2024/01/14 10:39:39;;;;;;;10.85;2.85;;;5.90;99.90;;;;;;5001756;28;20618;-69
2024/01/14 10:42:06;;;;;;;7.28;2.55;;;6.00;99.90;;;;;;5006769;28;20636;-71
2024/01/14 10:44:35;;;;;;;8.75;2.00;;;6.20;99.90;;;;;;5006681;28;20664;-71
2024/01/14 10:47:03;;;;;;;14.13;2.63;;;6.40;99.90;;;;;;5005619;28;20209;-71
2024/01/14 10:49:32;;;;;;;5.20;2.53;;;6.70;99.90;;;;;;5006489;28;20546;-69
2024/01/14 10:52:07;;;;;;;13.55;3.47;;;6.80;99.90;;;;;;5007454;28;20229;-70
2024/01/14 10:54:41;;;;;;;8.75;2.55;;;6.90;99.90;;;;;;5008924;28;20216;-71
2024/01/14 10:57:16;;;;;;;18.15;3.05;;;7.10;99.90;;;;;;5010469;28;20209;-70
2024/01/14 10:59:45;;;;;;;9.63;2.15;;;7.00;99.90;;;;;;5008341;28;20304;-70
2024/01/14 11:02:17;;;;;;;14.38;3.90;;;7.00;99.90;;;;;;5010554;28;20308;-70
2024/01/14 11:04:45;;;;;;;12.40;3.10;;;6.70;99.90;;;;;;5010653;28;20764;-69
2024/01/14 11:07:14;;;;;;;7.78;2.20;;;6.50;99.90;;;;;;5012003;28;20662;-70
2024/01/14 11:09:42;;;;;;;7.85;2.38;;;6.50;99.90;;;;;;5001478;28;20236;-73
2024/01/14 11:12:15;;;;;;;6.05;2.22;;;6.30;99.90;;;;;;4999059;28;20748;-70
2024/01/14 11:14:48;;;;;;;6.50;2.50;;;6.30;99.90;;;;;;5006297;28;20240;-70
2024/01/14 11:17:27;;;;;;;6.28;2.17;;;6.30;99.90;;;;;;5001391;28;20212;-70
2024/01/14 11:19:55;;;;;;;14.07;2.55;;;6.40;99.90;;;;;;5004032;28;20209;-71
2024/01/14 11:22:24;;;;;;;12.50;2.30;;;6.40;99.90;;;;;;4998986;28;20272;-71
2024/01/14 11:24:52;;;;;;;8.85;2.35;;;6.50;99.90;;;;;;4999880;28;20736;-70
2024/01/14 11:27:19;;;;;;;9.13;2.30;;;6.50;99.90;;;;;;5000660;28;20217;-71
2024/01/14 11:29:48;;;;;;;8.70;3.60;;;6.50;99.90;;;;;;5009142;28;20264;-71
2024/01/14 11:32:16;;;;;;;6.85;2.20;;;6.60;99.90;;;;;;5011517;28;20233;-70
2024/01/14 11:34:57;;;;;;;4.63;2.33;;;6.60;99.90;;;;;;5007541;28;20205;-70
2024/01/14 11:37:44;;;;;;;9.05;2.10;;;6.60;99.90;;;;;;5000037;28;20209;-70
2024/01/14 11:40:16;;;;;;;14.52;2.70;;;6.60;99.90;;;;;;5006884;28;20267;-70
2024/01/14 11:42:50;;;;;;;7.05;2.00;;;6.60;99.90;;;;;;5003481;28;20221;-69
2024/01/14 11:45:38;;;;;;;6.20;2.10;;;6.50;99.90;;;;;;5015173;28;20201;-69
2024/01/14 11:48:06;;;;;;;8.27;2.08;;;6.30;99.90;;;;;;5008492;28;22044;-68
2024/01/14 11:50:34;;;;;;;6.95;2.15;;;6.20;99.90;;;;;;5006979;28;20243;-70
2024/01/14 11:53:04;;;;;;;9.23;2.05;;;6.20;99.90;;;;;;5007771;28;20590;-70
2024/01/14 11:55:32;;;;;;;4.63;2.20;;;6.20;99.90;;;;;;5010006;28;20675;-69
2024/01/14 11:58:29;;;;;;;8.55;2.88;;;6.10;99.90;;;;;;5004315;28;20344;-70
2024/01/14 12:00:58;;;;;;;10.68;2.47;;;6.40;99.90;;;;;;4959402;28;20229;-69
2024/01/14 12:03:26;;;;;;;10.00;2.35;;;6.60;99.90;;;;;;5009427;28;20769;-69
2024/01/14 12:05:54;;;;;;;4.30;1.90;;;6.50;99.90;;;;;;5012168;28;20719;-71
2024/01/14 12:08:21;;;;;;;5.60;2.13;;;6.60;99.90;;;;;;5003553;28;20201;-71
2024/01/14 12:10:48;;;;;;;6.65;2.50;;;6.50;99.90;;;;;;5013029;28;20201;-70
2024/01/14 12:13:16;;;;;;;7.50;2.30;;;6.60;99.90;;;;;;5011292;28;20228;-70
2024/01/14 12:15:43;;;;;;;7.30;3.08;;;6.50;99.90;;;;;;5006426;28;20571;-69
2024/01/14 12:18:12;;;;;;;8.25;2.60;;;6.50;99.90;;;;;;5010782;28;20205;-70
2024/01/14 12:20:39;;;;;;;6.32;2.78;;;6.70;99.90;;;;;;5006993;28;20233;-70
2024/01/14 12:23:06;;;;;;;9.20;2.53;;;6.60;99.90;;;;;;5010698;28;20652;-71
2024/01/14 12:25:37;;;;;;;7.38;2.47;;;6.50;99.90;;;;;;5013153;28;20233;-70
2024/01/14 12:28:05;;;;;;;8.38;2.13;;;6.50;99.90;;;;;;5004238;28;20213;-71
2024/01/14 12:30:34;;;;;;;5.30;2.80;;;6.60;99.90;;;;;;5004847;28;20244;-71
2024/01/14 12:33:05;;;;;;;13.45;2.75;;;6.60;99.90;;;;;;5006989;28;20221;-72
2024/01/14 12:35:37;;;;;;;9.75;1.80;;;6.40;99.90;;;;;;5010586;28;20646;-73
2024/01/14 12:38:07;;;;;;;5.38;1.88;;;6.30;99.90;;;;;;5004632;28;20260;-71
2024/01/14 12:40:35;;;;;;;15.82;2.88;;;6.30;99.90;;;;;;5001823;28;20289;-71
2024/01/14 12:43:02;;;;;;;2.78;1.65;;;6.30;99.90;;;;;;5006207;28;20280;-71
2024/01/14 12:45:29;;;;;;;9.32;3.20;;;6.20;99.90;;;;;;5004084;28;20197;-71
2024/01/14 12:47:57;;;;;;;7.32;2.50;;;6.30;99.90;;;;;;5005800;28;20260;-72
2024/01/14 12:50:29;;;;;;;5.43;1.75;;;6.20;99.90;;;;;;5008243;28;20288;-72
2024/01/14 12:53:07;;;;;;;6.25;1.90;;;6.10;99.90;;;;;;5007851;28;20233;-70
2024/01/14 12:55:34;;;;;;;7.97;2.97;;;6.10;99.90;;;;;;5011236;28;20292;-70
2024/01/14 12:58:02;;;;;;;6.82;1.92;;;6.20;99.90;;;;;;5003899;28;20248;-70
2024/01/14 13:00:30;;;;;;;5.07;2.00;;;6.10;99.90;;;;;;5011170;28;20221;-71